Athens, Arkansas
Current Conditions -  °F | °C
As of 12:35 PM on Monday 26 Jan 2015 (Local Time) from KMEZ Reporting Station
Clear Clear  
Wind Chill: 61°   Ceiling: Unl
Heat Index: 61°   Visibility: 10mi
Dew Point: 32°   Wind: 9mph
Humidity: 34%   Direction: 270°W
Pressure: 30.08"   Gusts: NA
Location:  34.2871°N, 94.1174°W
Report Text: KMEZ 261835Z AUTO 27008KT 10SM CLR 16/00 A3008 RMK AO2
Loading
Personal Weather Stations






























Interactive Weather Map New forecast layout! Learn more

10-Day Weather Forecast

Advertisements
Track Severe Weather on mobile